Huvudsida
METAR-TAF:

METAR-TAF

Flygplatser :

Kiruna Airport

Kiruna, Sverige

latitud: 67-49N, longitud: 020-20E, höjd: 452 m

Aktuellt väderrapport

Denna rapport gjordes för 33 minuter sedan, klockan 20:20 UTC
Vind 9 kt från sydväst
Temperatur -20°C
Fuktighet 70%
Tryck 1024 hPa
Sikt 10 km eller mer

METAR: ESNQ 212020Z AUTO 22009KT 9999 NCD M20/M24 Q1024

Tid: 21:53 (20:53 UTC)

Väderprognos

Denna rapport gjordes för 23 minuter sedan, klockan 20:30 UTC
Prognos gäller från 21 kl. 21 UTC till 21 kl. 24 UTC
Vind 8 kt från sydväst
Sikt 10 km eller mer
Inga moln under 1 500 m eller inga cumulonimbus

TAF: ESNQ 212030Z 2121/2124 22008KT CAVOK

Aktuella väderrapporter och prognoser från 4000 flygplatser (METAR- och TAF-rapporter).

De tillgängliga stationerna syns som gula och röda prickar på kartan.

För musen över prickarna för att se namnen på stationerna.

Klicka sedan för att få väderrapporter och prognoser.

För att ändra kartan: Klicka på de gröna knapparna med ett svart kors på för att zooma in; den gröna knappen med ett streck på för att zooma ut; eller på de gröna pilarna för angränsande kartor.


METAR-TAF: